createdAt,value
2022-08-02T00:02:05.172Z,17.78
2022-08-02T00:08:25.168Z,17.62
2022-08-02T00:14:48.157Z,17.51
2022-08-02T00:21:08.231Z,17.49
2022-08-02T00:27:31.166Z,17.46
2022-08-02T00:34:05.545Z,17.45
2022-08-02T00:40:14.151Z,17.35
2022-08-02T00:46:34.196Z,17.2
2022-08-02T00:52:57.171Z,17.2
2022-08-02T00:59:17.199Z,17.2
2022-08-02T01:06:02.245Z,17.15
2022-08-02T01:12:02.728Z,17.1
2022-08-02T01:18:23.176Z,17.07
2022-08-02T01:24:43.142Z,16.96
2022-08-02T01:31:06.177Z,16.94
2022-08-02T01:37:26.148Z,16.92
2022-08-02T01:43:49.177Z,16.91
2022-08-02T01:50:09.166Z,16.87
2022-08-02T01:56:32.187Z,16.84
2022-08-02T02:02:52.162Z,16.78
2022-08-02T02:09:15.194Z,16.62
2022-08-02T02:15:35.143Z,16.56
2022-08-02T02:21:58.181Z,16.46
2022-08-02T02:28:18.185Z,16.43
2022-08-02T02:34:41.200Z,16.43
2022-08-02T02:41:01.190Z,16.38
2022-08-02T02:47:40.393Z,16.35
2022-08-02T02:54:26.614Z,16.26
2022-08-02T03:00:07.187Z,16.18
2022-08-02T03:06:27.219Z,16.1
2022-08-02T03:12:50.156Z,15.96
2022-08-02T03:19:10.247Z,15.84
2022-08-02T03:25:33.194Z,15.78
2022-08-02T03:31:53.194Z,15.71
2022-08-02T03:47:44.686Z,15.64
2022-08-02T03:54:04.141Z,15.65
2022-08-02T04:00:27.187Z,15.69
2022-08-02T04:06:47.260Z,15.7
2022-08-02T04:13:10.191Z,15.69
2022-08-02T04:19:30.203Z,15.69
2022-08-02T04:25:53.154Z,15.67
2022-08-02T04:32:13.583Z,15.64
2022-08-02T04:38:36.175Z,15.58
2022-08-02T04:44:56.189Z,15.56
2022-08-02T04:51:19.185Z,15.61
2022-08-02T04:57:39.197Z,15.65
2022-08-02T05:04:02.160Z,15.69
2022-08-02T05:10:22.193Z,15.74
2022-08-02T05:16:45.191Z,15.75
2022-08-02T05:23:05.158Z,15.72
2022-08-02T05:29:28.176Z,15.75
2022-08-02T05:35:48.139Z,15.87
2022-08-02T05:42:11.386Z,16.02
2022-08-02T05:48:32.304Z,16.15
2022-08-02T05:54:54.160Z,16.29
2022-08-02T06:01:14.266Z,16.45
2022-08-02T06:07:37.151Z,16.59
2022-08-02T06:13:57.255Z,16.72
2022-08-02T06:20:20.163Z,16.84
2022-08-02T06:26:40.145Z,16.96
2022-08-02T06:33:03.197Z,17.13
2022-08-02T06:39:23.162Z,17.35
2022-08-02T06:45:46.152Z,17.62
2022-08-02T06:52:06.198Z,17.9
2022-08-02T06:58:29.152Z,18.18
2022-08-02T07:04:49.170Z,18.45
2022-08-02T07:11:12.151Z,18.72
2022-08-02T07:17:32.200Z,18.98
2022-08-02T07:23:55.151Z,19.24
2022-08-02T07:30:15.152Z,19.52
2022-08-02T07:36:38.194Z,19.81
2022-08-02T07:43:03.280Z,20.12
2022-08-02T07:49:21.235Z,20.41
2022-08-02T07:55:41.194Z,20.74
2022-08-02T08:02:04.217Z,21.1
2022-08-02T08:08:24.177Z,21.47
2022-08-02T08:14:47.146Z,21.83
2022-08-02T08:21:07.147Z,22.15
2022-08-02T08:27:30.184Z,22.42
2022-08-02T08:33:50.218Z,22.79
2022-08-02T08:40:13.181Z,23.2
2022-08-02T08:46:33.296Z,23.63
2022-08-02T08:52:56.181Z,24.09
2022-08-02T09:16:37.081Z,25.28
2022-08-02T09:22:57.154Z,25.68
2022-08-02T09:29:20.178Z,26.05
2022-08-02T09:36:05.534Z,26.35
2022-08-02T09:42:03.144Z,26.68
2022-08-02T09:48:23.167Z,27.05
2022-08-02T09:54:46.208Z,27.44
2022-08-02T10:01:07.217Z,27.84
2022-08-02T10:07:30.151Z,28.16
2022-08-02T10:13:50.164Z,28.32
2022-08-02T10:20:13.153Z,28.55
2022-08-02T10:26:33.143Z,29.06
2022-08-02T10:32:57.239Z,29.21
2022-08-02T10:39:17.156Z,29
2022-08-02T10:45:40.178Z,28.81
2022-08-02T10:52:00.146Z,28.27
2022-08-02T10:58:25.978Z,27.8
2022-08-02T11:04:43.144Z,27.56
2022-08-02T11:11:06.149Z,27.89
2022-08-02T11:17:26.178Z,28.02
2022-08-02T11:23:49.505Z,27.92
2022-08-02T11:30:09.195Z,27.95
2022-08-02T11:36:32.164Z,28.75
2022-08-02T11:42:52.167Z,29.07
2022-08-02T11:49:15.265Z,29.37
2022-08-02T11:55:35.145Z,29.34
2022-08-02T12:01:58.233Z,29.6
2022-08-02T12:08:19.168Z,30.34
2022-08-02T12:14:41.144Z,31.19
2022-08-02T12:21:01.189Z,31.7
2022-08-02T12:27:24.142Z,31.95
2022-08-02T12:33:44.165Z,32.35
2022-08-02T12:40:07.150Z,32.37
2022-08-02T12:46:27.168Z,32.21
2022-08-02T12:52:50.157Z,31.84
2022-08-02T12:59:10.149Z,31.83
2022-08-02T13:05:56.500Z,31.73
2022-08-02T13:11:53.147Z,31.78
2022-08-02T13:18:16.179Z,31.39
2022-08-02T13:24:39.104Z,31.57
2022-08-02T13:31:10.104Z,31.78
2022-08-02T13:37:19.169Z,31.83
2022-08-02T13:43:52.969Z,31.98
2022-08-02T13:50:02.398Z,32.48
2022-08-02T13:56:35.309Z,32.66
2022-08-02T14:02:46.321Z,32.29
2022-08-02T14:09:09.173Z,31.8
2022-08-02T14:15:30.309Z,31.83
2022-08-02T14:21:52.177Z,31.92
2022-08-02T14:28:12.154Z,32.67
2022-08-02T14:34:35.178Z,32.66
2022-08-02T14:40:55.151Z,32.73
2022-08-02T15:04:01.178Z,32.59
2022-08-02T15:10:24.156Z,32.26
2022-08-02T15:16:55.830Z,32.49
2022-08-02T15:23:07.151Z,32.68
2022-08-02T15:29:27.163Z,32.53
2022-08-02T15:35:50.165Z,32.72
2022-08-02T15:42:10.490Z,32.67
2022-08-02T15:48:33.187Z,32.53
2022-08-02T15:54:53.269Z,32.75
2022-08-02T16:01:16.441Z,32.47
2022-08-02T16:07:39.556Z,32.45
2022-08-02T16:13:59.206Z,32.62
2022-08-02T16:20:19.180Z,32.73
2022-08-02T16:26:42.153Z,32.8
2022-08-02T16:33:02.196Z,32.99
2022-08-02T16:39:25.303Z,32.92
2022-08-02T16:45:45.330Z,33.27
2022-08-02T16:52:09.419Z,33.41
2022-08-02T16:58:28.150Z,33.09
2022-08-02T17:04:51.184Z,33.04
2022-08-02T17:11:11.144Z,33.1
2022-08-02T17:24:04.782Z,32.59
2022-08-02T17:30:17.180Z,32.41
2022-08-02T17:36:39.156Z,32.41
2022-08-02T17:43:02.287Z,32.19
2022-08-02T17:49:22.321Z,32.51
2022-08-02T17:55:45.174Z,32.48
2022-08-02T18:02:05.143Z,31.8
2022-08-02T18:08:28.168Z,31.15
2022-08-02T18:14:49.244Z,30.71
2022-08-02T18:21:16.390Z,30.3
2022-08-02T18:27:31.162Z,29.99
2022-08-02T18:34:01.191Z,29.76
2022-08-02T18:40:14.175Z,29.53
2022-08-02T18:46:37.146Z,29.33
2022-08-02T18:52:57.207Z,29.18
2022-08-02T18:59:20.141Z,29.01
2022-08-02T19:05:51.901Z,28.77
2022-08-02T19:12:03.163Z,28.43
2022-08-02T19:18:26.815Z,28.08
2022-08-02T19:24:46.206Z,27.63
2022-08-02T19:31:06.141Z,27.24
2022-08-02T19:37:31.589Z,26.94
2022-08-02T19:44:22.723Z,26.67
2022-08-02T19:50:12.215Z,26.39
2022-08-02T19:56:32.181Z,26.12
2022-08-02T20:02:55.225Z,25.88
2022-08-02T20:09:16.412Z,25.61
2022-08-02T20:15:51.671Z,25.38
2022-08-02T20:21:59.866Z,25.21
2022-08-02T20:38:08.571Z,24.84
2022-08-02T20:44:30.014Z,24.56
2022-08-02T20:50:51.164Z,24.37
2022-08-02T20:57:11.143Z,24.29
2022-08-02T21:03:38.999Z,24.17
2022-08-02T21:09:54.357Z,24.02
2022-08-02T21:16:18.407Z,23.85
2022-08-02T21:22:37.149Z,23.69
2022-08-02T21:29:00.647Z,23.5
2022-08-02T21:35:20.138Z,23.35
2022-08-02T21:41:46.013Z,23.18
2022-08-02T21:48:03.141Z,23.05
2022-08-02T21:54:26.145Z,22.94
2022-08-02T22:19:57.157Z,22.52
2022-08-02T22:26:18.843Z,22.45
2022-08-02T22:32:40.170Z,22.35
2022-08-02T22:39:00.160Z,22.26
2022-08-02T22:45:23.146Z,22.18
2022-08-02T22:51:43.214Z,22.08
2022-08-02T22:58:06.149Z,21.96
2022-08-02T22:58:42.479Z,32.88
2022-08-02T23:04:26.161Z,21.82
2022-08-02T23:10:49.164Z,21.67
2022-08-02T23:17:09.158Z,21.6
2022-08-02T23:23:32.247Z,21.54
2022-08-02T23:29:52.176Z,21.48
2022-08-02T23:36:15.153Z,21.39
2022-08-02T23:42:35.154Z,21.21
2022-08-02T23:48:58.178Z,21.06
2022-08-02T23:55:18.193Z,20.98
